Time;durP1;ratioP1;P1;durP2;ratioP2;P2;SDS_P1;SDS_P2;PMS_P1;PMS_P2;Temp;Humidity;BMP_temperature;BMP_pressure;BME280_temperature;BME280_humidity;BME280_pressure;Samples;Min_cycle;Max_cycle;Signal;HPM_P1;HPM_P2
2023/04/22 00:00:10;;;;;;;22.23;13.37;;;5.30;99.90;;;;;;5028023;28;20194;-70
2023/04/22 00:02:37;;;;;;;20.70;12.97;;;5.20;99.90;;;;;;5027720;28;20216;-70
2023/04/22 00:05:04;;;;;;;25.40;13.40;;;5.40;99.90;;;;;;5029152;28;20190;-70
2023/04/22 00:07:29;;;;;;;20.73;13.30;;;5.30;99.90;;;;;;5026180;28;20320;-70
2023/04/22 00:09:55;;;;;;;25.13;13.17;;;5.30;99.90;;;;;;5029489;28;20600;-70
2023/04/22 00:12:21;;;;;;;25.37;13.70;;;5.30;99.90;;;;;;5025803;28;20233;-70
2023/04/22 00:14:47;;;;;;;24.27;12.63;;;5.20;99.90;;;;;;5029820;28;20554;-70
2023/04/22 00:17:12;;;;;;;21.70;13.00;;;5.30;99.90;;;;;;5025658;28;20214;-70
2023/04/22 00:19:38;;;;;;;18.20;11.17;;;5.30;99.90;;;;;;5024652;28;20616;-70
2023/04/22 00:22:04;;;;;;;24.90;12.27;;;5.10;99.90;;;;;;5026308;28;20185;-70
2023/04/22 00:24:29;;;;;;;21.33;13.13;;;5.10;99.90;;;;;;5028456;28;20181;-70
2023/04/22 00:26:55;;;;;;;21.97;13.13;;;5.00;99.90;;;;;;5027443;28;20221;-71
2023/04/22 00:29:21;;;;;;;24.57;14.20;;;5.00;99.90;;;;;;5027269;28;20173;-70
2023/04/22 00:31:46;;;;;;;22.23;13.90;;;5.10;99.90;;;;;;5028495;28;20189;-70
2023/04/22 00:34:12;;;;;;;25.00;14.10;;;5.00;99.90;;;;;;5025604;28;20182;-71
2023/04/22 00:36:38;;;;;;;21.57;13.13;;;5.00;99.90;;;;;;5029259;28;20182;-70
2023/04/22 00:39:03;;;;;;;22.80;12.97;;;5.00;99.90;;;;;;5024725;28;20179;-71
2023/04/22 00:41:29;;;;;;;23.93;12.73;;;4.90;99.90;;;;;;5029360;28;20265;-70
2023/04/22 00:43:57;;;;;;;20.50;12.50;;;4.90;99.90;;;;;;5025347;28;20266;-70
2023/04/22 00:46:23;;;;;;;23.40;12.87;;;4.80;99.90;;;;;;5028600;28;20249;-71
2023/04/22 00:48:50;;;;;;;24.00;12.40;;;5.00;99.90;;;;;;5026313;28;20235;-70
2023/04/22 00:51:15;;;;;;;17.73;11.67;;;7.10;99.90;;;;;;5027632;28;20185;-70
2023/04/22 00:53:41;;;;;;;20.87;12.03;;;4.80;99.90;;;;;;5027397;28;20170;-70
2023/04/22 00:56:07;;;;;;;20.07;12.20;;;4.70;99.90;;;;;;5026104;28;20235;-71
2023/04/22 00:58:33;;;;;;;23.37;12.53;;;4.80;99.90;;;;;;5027705;28;20272;-70
2023/04/22 01:00:58;;;;;;;20.47;11.87;;;4.70;99.90;;;;;;5025065;28;20197;-71
2023/04/22 01:03:27;;;;;;;21.60;11.93;;;4.70;99.90;;;;;;5028813;28;20178;-70
2023/04/22 01:05:52;;;;;;;28.00;12.43;;;4.70;99.90;;;;;;5027122;28;20285;-70
2023/04/22 01:08:19;;;;;;;20.00;12.30;;;4.70;99.90;;;;;;5028846;28;20299;-70
2023/04/22 01:10:45;;;;;;;20.77;11.77;;;4.70;99.90;;;;;;5024890;28;20671;-71
2023/04/22 01:13:10;;;;;;;21.30;12.33;;;4.70;99.90;;;;;;5027979;28;20234;-70
2023/04/22 01:15:36;;;;;;;24.10;12.50;;;4.40;99.90;;;;;;5025984;28;20699;-71
2023/04/22 01:18:03;;;;;;;23.73;11.97;;;4.50;99.90;;;;;;5026764;28;20232;-70
2023/04/22 01:20:29;;;;;;;20.90;12.47;;;4.50;99.90;;;;;;5027100;28;20541;-70
2023/04/22 01:22:58;;;;;;;22.20;13.10;;;4.60;99.90;;;;;;5025473;28;20189;-71
2023/04/22 01:25:24;;;;;;;22.50;12.63;;;4.50;99.90;;;;;;5027527;28;20592;-71
2023/04/22 01:27:50;;;;;;;23.43;13.20;;;;;;;;;;5024657;28;20668;-70
2023/04/22 01:30:16;;;;;;;23.33;12.43;;;4.30;99.90;;;;;;5028610;28;20215;-70
2023/04/22 01:32:42;;;;;;;23.83;12.07;;;4.50;99.90;;;;;;5026867;28;20178;-71
2023/04/22 01:35:09;;;;;;;22.27;13.20;;;4.30;99.90;;;;;;5028573;28;20182;-70
2023/04/22 01:37:35;;;;;;;20.20;11.53;;;4.50;99.90;;;;;;5024410;28;20232;-70
2023/04/22 01:40:03;;;;;;;21.50;12.47;;;4.50;99.90;;;;;;5027835;28;20178;-70
2023/04/22 01:42:29;;;;;;;20.57;12.50;;;4.50;99.90;;;;;;5025041;28;20178;-70
2023/04/22 01:44:55;;;;;;;20.77;12.63;;;4.50;99.90;;;;;;5026807;28;20597;-70
2023/04/22 01:47:20;;;;;;;19.53;12.13;;;4.50;99.90;;;;;;5026424;28;20614;-70
2023/04/22 01:49:46;;;;;;;25.03;13.53;;;3.90;99.90;;;;;;5025459;28;20644;-71
2023/04/22 01:52:12;;;;;;;22.67;13.07;;;4.30;99.90;;;;;;5025925;28;20719;-70
2023/04/22 01:54:38;;;;;;;22.70;14.00;;;4.30;99.90;;;;;;5024188;28;20181;-71
2023/04/22 01:57:09;;;;;;;24.07;13.70;;;4.40;99.90;;;;;;5027665;28;20182;-70
2023/04/22 01:59:35;;;;;;;25.40;14.27;;;4.40;99.90;;;;;;5027225;28;20189;-70
2023/04/22 02:02:01;;;;;;;26.40;14.00;;;4.20;99.90;;;;;;5028037;28;20268;-70
2023/04/22 02:04:26;;;;;;;28.77;15.80;;;4.30;99.90;;;;;;5023098;28;20253;-70
2023/04/22 02:06:52;;;;;;;26.27;14.07;;;4.20;99.90;;;;;;5027532;28;20329;-70
2023/04/22 02:09:17;;;;;;;24.97;14.53;;;4.30;99.90;;;;;;5023903;28;20185;-70
2023/04/22 02:11:43;;;;;;;31.33;15.13;;;4.30;99.90;;;;;;5026146;28;20243;-70
2023/04/22 02:14:09;;;;;;;31.83;15.47;;;4.30;99.90;;;;;;5025148;28;20182;-70
2023/04/22 02:16:34;;;;;;;25.37;15.00;;;4.40;99.90;;;;;;5025744;28;20601;-71
2023/04/22 02:19:00;;;;;;;25.73;14.33;;;4.30;99.90;;;;;;5026408;28;20260;-70
2023/04/22 02:21:28;;;;;;;35.07;15.67;;;4.20;99.90;;;;;;5024048;28;20198;-70
2023/04/22 02:23:54;;;;;;;27.30;14.87;;;4.30;99.90;;;;;;5026612;28;20217;-70
2023/04/22 02:26:20;;;;;;;27.33;15.00;;;4.30;99.90;;;;;;5023411;28;20230;-70
2023/04/22 02:28:45;;;;;;;29.30;14.90;;;4.20;99.90;;;;;;5027559;28;20192;-70
2023/04/22 02:31:11;;;;;;;27.07;15.87;;;4.30;99.90;;;;;;5022555;28;20186;-70
2023/04/22 02:33:37;;;;;;;25.70;15.07;;;4.30;99.90;;;;;;5027406;28;20182;-70
2023/04/22 02:36:03;;;;;;;29.43;14.57;;;4.30;99.90;;;;;;5023249;28;20537;-70
2023/04/22 02:38:29;;;;;;;26.60;14.73;;;2.60;99.90;;;;;;5026514;28;20195;-70
2023/04/22 02:40:54;;;;;;;27.33;15.70;;;4.20;99.90;;;;;;5024702;28;20186;-70
2023/04/22 02:43:20;;;;;;;27.53;15.10;;;4.20;99.90;;;;;;5024741;28;20186;-71
2023/04/22 02:45:46;;;;;;;30.83;15.87;;;4.10;99.90;;;;;;5025687;28;20304;-70
2023/04/22 02:48:11;;;;;;;28.77;16.17;;;6.40;99.90;;;;;;5023614;28;20185;-70
2023/04/22 02:50:37;;;;;;;29.03;15.93;;;4.10;99.90;;;;;;5026080;28;20549;-71
2023/04/22 02:53:02;;;;;;;31.30;16.23;;;4.00;99.90;;;;;;5023110;28;20183;-71
2023/04/22 02:55:28;;;;;;;26.97;15.87;;;4.00;99.90;;;;;;5026726;28;20744;-72
2023/04/22 02:57:53;;;;;;;28.17;15.83;;;4.00;99.90;;;;;;5022202;28;20657;-71
2023/04/22 03:00:19;;;;;;;30.43;15.23;;;4.00;99.90;;;;;;5026794;28;20522;-71
2023/04/22 03:02:45;;;;;;;30.87;16.23;;;3.90;99.90;;;;;;5023267;28;20209;-71
2023/04/22 03:05:10;;;;;;;31.07;16.60;;;3.80;99.90;;;;;;5025700;28;20636;-71
2023/04/22 03:07:36;;;;;;;27.70;16.23;;;3.90;99.90;;;;;;5024573;28;20238;-71
2023/04/22 03:10:02;;;;;;;32.77;16.77;;;4.00;99.90;;;;;;5023857;28;20532;-71
2023/04/22 03:12:27;;;;;;;32.53;15.67;;;3.90;99.90;;;;;;5026023;28;20177;-71
2023/04/22 03:14:53;;;;;;;32.27;17.20;;;3.90;99.90;;;;;;5022791;28;20720;-71
2023/04/22 03:17:19;;;;;;;35.73;17.70;;;3.90;99.90;;;;;;5026523;28;20216;-71
2023/04/22 03:19:45;;;;;;;31.77;17.00;;;;;;;;;;5021818;28;20289;-70
2023/04/22 03:22:10;;;;;;;30.83;16.83;;;4.00;99.90;;;;;;5026366;28;20260;-70
2023/04/22 03:24:37;;;;;;;30.33;16.73;;;4.00;99.90;;;;;;5022864;28;20170;-71
2023/04/22 03:27:03;;;;;;;32.80;16.67;;;4.00;99.90;;;;;;5025181;28;20256;-71
2023/04/22 03:29:28;;;;;;;30.77;16.40;;;4.00;99.90;;;;;;5023927;28;20235;-71
2023/04/22 03:31:54;;;;;;;30.90;16.17;;;4.00;99.90;;;;;;5024117;28;20173;-71
2023/04/22 03:34:19;;;;;;;28.13;15.87;;;3.90;99.90;;;;;;5025191;28;20185;-68
2023/04/22 03:36:45;;;;;;;27.97;15.70;;;3.80;99.90;;;;;;5022789;28;20190;-71
2023/04/22 03:39:10;;;;;;;27.73;15.60;;;3.70;99.90;;;;;;5025630;28;20197;-70
2023/04/22 03:41:36;;;;;;;27.90;15.33;;;3.80;99.90;;;;;;5024970;28;20198;-71
2023/04/22 03:44:02;;;;;;;27.40;15.23;;;3.80;99.90;;;;;;5026302;28;20177;-71
2023/04/22 03:46:27;;;;;;;27.10;15.77;;;4.10;99.90;;;;;;5021798;28;20744;-71
2023/04/22 03:48:53;;;;;;;30.13;14.97;;;3.80;99.90;;;;;;5025988;28;20184;-70
2023/04/22 03:51:18;;;;;;;31.40;15.30;;;3.60;99.90;;;;;;5023111;28;20552;-70
2023/04/22 03:53:44;;;;;;;28.27;15.20;;;3.70;99.90;;;;;;5024143;28;20260;-70
2023/04/22 03:56:10;;;;;;;28.00;14.40;;;3.70;99.90;;;;;;5024629;28;20281;-72
2023/04/22 03:58:35;;;;;;;27.97;14.50;;;3.60;99.90;;;;;;5023563;28;20567;-71
2023/04/22 04:01:01;;;;;;;27.47;13.77;;;3.30;99.90;;;;;;5025640;28;20701;-72
2023/04/22 04:03:26;;;;;;;24.30;13.97;;;3.30;99.90;;;;;;5024425;28;20185;-72
2023/04/22 04:05:53;;;;;;;23.40;13.23;;;3.20;99.90;;;;;;5027146;28;20202;-72
2023/04/22 04:08:19;;;;;;;28.00;13.23;;;3.10;99.90;;;;;;5023611;28;20179;-70
2023/04/22 04:10:44;;;;;;;26.77;13.80;;;3.00;99.90;;;;;;5027881;28;20189;-70
2023/04/22 04:13:10;;;;;;;25.63;14.20;;;;;;;;;;5018811;28;20213;-70
2023/04/22 04:15:36;;;;;;;25.33;13.77;;;3.70;99.90;;;;;;5030299;28;20261;-69
2023/04/22 04:18:02;;;;;;;28.73;15.30;;;3.30;99.90;;;;;;5024056;28;20535;-69
2023/04/22 04:20:28;;;;;;;31.03;15.47;;;3.80;99.90;;;;;;5026082;28;20275;-70
2023/04/22 04:22:55;;;;;;;29.40;15.37;;;3.50;99.90;;;;;;5028241;28;20240;-70
2023/04/22 04:25:21;;;;;;;28.97;14.97;;;3.80;99.90;;;;;;5023966;28;20174;-71
2023/04/22 04:27:46;;;;;;;29.80;14.33;;;3.60;99.90;;;;;;5025151;28;20186;-70
2023/04/22 04:30:13;;;;;;;32.63;14.37;;;3.50;99.90;;;;;;5020814;28;20178;-72
2023/04/22 04:32:39;;;;;;;27.43;14.57;;;3.60;99.90;;;;;;5025290;28;20317;-70
2023/04/22 04:35:05;;;;;;;27.60;15.10;;;3.60;99.90;;;;;;5028192;28;20174;-70
2023/04/22 04:37:31;;;;;;;41.47;18.87;;;3.70;99.90;;;;;;5029238;28;20289;-71
2023/04/22 04:40:00;;;;;;;41.77;20.07;;;;;;;;;;5025119;28;20269;-70
2023/04/22 04:42:26;;;;;;;42.70;21.07;;;3.90;99.90;;;;;;5029444;28;20190;-71
2023/04/22 04:44:52;;;;;;;39.93;19.80;;;3.90;99.90;;;;;;5007593;28;20258;-71
2023/04/22 04:47:18;;;;;;;28.73;15.80;;;4.00;99.90;;;;;;5028700;28;20217;-70
2023/04/22 04:49:45;;;;;;;27.90;15.13;;;4.10;99.90;;;;;;5026051;28;20989;-70
2023/04/22 04:52:10;;;;;;;32.37;15.97;;;3.90;99.90;;;;;;5027501;28;20181;-71
2023/04/22 04:54:36;;;;;;;30.07;15.63;;;3.70;99.90;;;;;;5027188;28;20180;-70
2023/04/22 04:57:02;;;;;;;33.43;16.47;;;3.90;99.90;;;;;;5026370;28;20174;-71
2023/04/22 04:59:28;;;;;;;40.93;17.47;;;3.90;99.90;;;;;;5028238;28;20208;-70
2023/04/22 05:01:53;;;;;;;37.40;17.20;;;3.90;99.90;;;;;;5025110;28;20179;-70
2023/04/22 05:04:20;;;;;;;44.10;17.57;;;4.00;99.90;;;;;;5028723;28;20253;-70
2023/04/22 05:06:46;;;;;;;42.17;20.43;;;4.00;99.90;;;;;;5009833;28;20242;-71
2023/04/22 05:09:11;;;;;;;43.87;19.70;;;4.00;99.90;;;;;;5028842;28;20265;-70
2023/04/22 05:11:37;;;;;;;66.43;19.57;;;4.10;99.90;;;;;;5024389;28;20187;-70
2023/04/22 05:14:04;;;;;;;99.53;19.70;;;4.00;99.90;;;;;;5028460;28;20181;-70
2023/04/22 05:16:30;;;;;;;46.67;18.53;;;3.90;99.90;;;;;;5025315;28;20197;-70
2023/04/22 05:18:55;;;;;;;52.20;18.77;;;3.90;99.90;;;;;;5027499;28;20263;-70
2023/04/22 05:21:21;;;;;;;79.70;18.13;;;3.80;99.90;;;;;;5026478;28;20189;-70
2023/04/22 05:23:47;;;;;;;82.20;18.17;;;3.60;99.90;;;;;;5029389;28;20182;-71
2023/04/22 05:26:13;;;;;;;105.70;20.17;;;3.40;99.90;;;;;;5030731;28;20221;-70
2023/04/22 05:28:38;;;;;;;58.17;20.20;;;3.30;99.90;;;;;;5024852;28;20218;-70
2023/04/22 05:31:04;;;;;;;51.40;19.77;;;3.50;99.90;;;;;;5028712;28;20182;-70
2023/04/22 05:33:30;;;;;;;154.37;20.40;;;3.50;99.90;;;;;;5027099;28;20193;-70
2023/04/22 05:35:55;;;;;;;64.73;18.87;;;3.70;99.90;;;;;;5028527;28;20675;-70
2023/04/22 05:38:21;;;;;;;119.13;20.07;;;3.50;99.90;;;;;;5027405;28;20182;-70
2023/04/22 05:40:46;;;;;;;64.70;19.07;;;3.60;99.90;;;;;;5028056;28;20552;-71
2023/04/22 05:43:13;;;;;;;123.27;20.87;;;3.60;99.90;;;;;;5025312;28;20193;-70
2023/04/22 05:45:38;;;;;;;52.20;20.00;;;3.70;99.90;;;;;;5025620;28;20209;-71
2023/04/22 05:48:04;;;;;;;49.10;20.47;;;3.70;99.90;;;;;;5026775;28;20228;-70
2023/04/22 05:50:29;;;;;;;76.57;20.13;;;3.80;99.90;;;;;;5025383;28;20227;-71
2023/04/22 05:52:55;;;;;;;70.80;19.33;;;3.80;99.90;;;;;;5027241;28;20178;-70
2023/04/22 05:55:21;;;;;;;44.90;20.00;;;;;;;;;;5025089;28;20201;-71
2023/04/22 05:57:47;;;;;;;42.63;19.47;;;4.00;99.90;;;;;;5030532;28;20588;-71
2023/04/22 06:00:13;;;;;;;39.70;19.80;;;4.10;99.90;;;;;;5026045;28;20189;-71
2023/04/22 06:02:39;;;;;;;51.03;20.07;;;3.80;99.90;;;;;;5027898;28;20240;-70
2023/04/22 06:05:05;;;;;;;96.97;20.90;;;3.80;99.90;;;;;;5023744;28;20186;-70
2023/04/22 06:07:30;;;;;;;37.73;18.73;;;3.90;99.90;;;;;;5027139;28;20347;-70
2023/04/22 06:09:56;;;;;;;34.40;18.43;;;4.00;99.90;;;;;;5025306;28;20280;-70
2023/04/22 06:12:21;;;;;;;32.47;17.53;;;4.00;99.90;;;;;;5025700;28;20677;-71
2023/04/22 06:14:48;;;;;;;33.43;17.43;;;4.10;99.90;;;;;;5026202;28;20723;-72
2023/04/22 06:17:14;;;;;;;35.60;18.27;;;4.00;99.90;;;;;;5025470;28;20185;-71
2023/04/22 06:19:39;;;;;;;33.07;17.97;;;4.00;99.90;;;;;;5026657;28;20532;-70
2023/04/22 06:22:05;;;;;;;34.77;17.43;;;4.00;99.90;;;;;;5023732;28;20657;-71
2023/04/22 06:24:30;;;;;;;30.40;17.27;;;4.10;99.90;;;;;;5027463;28;20192;-71
2023/04/22 06:26:57;;;;;;;31.87;17.53;;;2.70;99.90;;;;;;5022740;28;20285;-71
2023/04/22 06:29:23;;;;;;;35.10;17.37;;;5.20;99.90;;;;;;5027413;28;20272;-71
2023/04/22 06:31:48;;;;;;;35.93;17.73;;;4.30;99.90;;;;;;5023434;28;20179;-71
2023/04/22 06:34:14;;;;;;;31.03;16.50;;;4.30;99.90;;;;;;5026560;28;20228;-71
2023/04/22 06:36:39;;;;;;;31.83;17.47;;;4.30;99.90;;;;;;5024863;28;20193;-71
2023/04/22 06:39:06;;;;;;;33.53;18.30;;;4.40;99.90;;;;;;5025115;28;20249;-71
2023/04/22 06:41:32;;;;;;;30.93;17.13;;;4.50;99.90;;;;;;5025926;28;20212;-71
2023/04/22 06:43:58;;;;;;;31.77;17.33;;;3.50;99.90;;;;;;5023584;28;20221;-71
2023/04/22 06:46:23;;;;;;;26.33;15.40;;;4.50;99.90;;;;;;5026295;28;20217;-71
2023/04/22 06:48:49;;;;;;;31.67;16.37;;;4.70;99.90;;;;;;5022876;28;20189;-71
2023/04/22 06:51:15;;;;;;;35.23;16.90;;;4.60;99.90;;;;;;5026904;28;20244;-71
2023/04/22 06:53:40;;;;;;;30.70;16.40;;;4.90;99.90;;;;;;5002372;28;20303;-71
2023/04/22 06:56:06;;;;;;;35.47;17.37;;;4.60;99.90;;;;;;5026589;28;20190;-71
2023/04/22 06:58:31;;;;;;;31.60;17.77;;;4.70;99.90;;;;;;5023388;28;20182;-71
2023/04/22 07:00:57;;;;;;;33.40;17.60;;;4.90;99.90;;;;;;5025294;28;20213;-71
2023/04/22 07:03:23;;;;;;;31.20;17.70;;;4.90;99.90;;;;;;5025472;28;20625;-71
2023/04/22 07:05:48;;;;;;;34.27;17.10;;;5.30;99.90;;;;;;5023568;28;20216;-71
2023/04/22 07:08:14;;;;;;;32.43;16.53;;;5.20;99.90;;;;;;5025509;28;20221;-71
2023/04/22 07:10:40;;;;;;;31.10;16.17;;;5.20;99.90;;;;;;5022905;28;20591;-70
2023/04/22 07:13:06;;;;;;;33.93;17.17;;;5.20;99.90;;;;;;5026621;28;20237;-71
2023/04/22 07:15:31;;;;;;;27.73;15.13;;;5.40;99.90;;;;;;5021926;28;20178;-71
2023/04/22 07:17:57;;;;;;;30.17;17.23;;;;;;;;;;5026524;28;20178;-69
2023/04/22 07:20:23;;;;;;;28.33;17.13;;;5.50;99.90;;;;;;5022753;28;20253;-69
2023/04/22 07:22:49;;;;;;;34.53;16.97;;;5.50;99.90;;;;;;5025490;28;20239;-70
2023/04/22 07:25:15;;;;;;;31.40;16.53;;;5.60;99.90;;;;;;5024007;28;20223;-70
2023/04/22 07:27:41;;;;;;;32.33;16.63;;;5.70;99.90;;;;;;5006349;28;20684;-69
2023/04/22 07:30:07;;;;;;;26.20;16.20;;;5.70;99.90;;;;;;5025186;28;20565;-70
2023/04/22 07:32:33;;;;;;;28.97;16.27;;;5.80;99.90;;;;;;5022746;28;20189;-69
2023/04/22 07:34:58;;;;;;;29.37;16.50;;;6.00;99.90;;;;;;5025521;28;20177;-70
2023/04/22 07:37:24;;;;;;;24.47;14.73;;;6.00;99.90;;;;;;5022420;28;20185;-69
2023/04/22 07:39:50;;;;;;;23.40;13.63;;;6.40;99.90;;;;;;5026141;28;20307;-69
2023/04/22 07:42:16;;;;;;;22.27;13.23;;;6.20;99.90;;;;;;5021612;28;20190;-69
2023/04/22 07:44:41;;;;;;;25.07;13.20;;;6.30;99.90;;;;;;5025978;28;20178;-70
2023/04/22 07:47:10;;;;;;;25.33;14.10;;;6.40;99.90;;;;;;5022889;28;20220;-70
2023/04/22 07:49:35;;;;;;;23.57;14.83;;;6.50;99.90;;;;;;5025170;28;20185;-70
2023/04/22 07:52:01;;;;;;;26.03;14.77;;;6.50;99.90;;;;;;5023402;28;20186;-70
2023/04/22 07:54:27;;;;;;;23.77;14.10;;;6.70;99.90;;;;;;5023885;28;20269;-70
2023/04/22 07:56:52;;;;;;;28.70;15.33;;;6.90;99.90;;;;;;5023643;28;20564;-70
2023/04/22 07:59:18;;;;;;;25.17;15.27;;;7.10;99.90;;;;;;5022490;28;20186;-68
2023/04/22 08:01:45;;;;;;;23.10;14.37;;;7.20;99.90;;;;;;5025395;28;20260;-69
2023/04/22 08:04:11;;;;;;;22.53;14.10;;;7.30;99.90;;;;;;5022060;28;20289;-69
2023/04/22 08:06:36;;;;;;;23.57;14.90;;;7.30;99.90;;;;;;5008222;28;20303;-69
2023/04/22 08:09:02;;;;;;;25.30;14.40;;;7.60;99.90;;;;;;5023078;28;20224;-71
2023/04/22 08:11:28;;;;;;;22.90;14.50;;;7.70;99.90;;;;;;5029958;28;20651;-69
2023/04/22 08:13:54;;;;;;;23.27;14.97;;;8.00;99.90;;;;;;5026035;28;20660;-69
2023/04/22 08:16:19;;;;;;;23.83;15.03;;;9.00;99.90;;;;;;5028745;28;20260;-69
2023/04/22 08:18:45;;;;;;;27.57;15.03;;;9.30;99.90;;;;;;5027491;28;20214;-69
2023/04/22 08:21:11;;;;;;;24.03;15.27;;;9.60;99.90;;;;;;5027250;28;20551;-70
2023/04/22 08:23:37;;;;;;;23.67;15.00;;;10.10;99.90;;;;;;5028592;28;20200;-69
2023/04/22 08:26:03;;;;;;;22.87;14.77;;;11.00;99.90;;;;;;5025420;28;20206;-69
2023/04/22 08:28:28;;;;;;;25.07;15.43;;;12.20;99.90;;;;;;5029024;28;20209;-69
2023/04/22 08:30:54;;;;;;;24.02;15.98;;;12.00;99.90;;;;;;5025051;28;20213;-69
2023/04/22 08:33:20;;;;;;;27.02;15.30;;;12.60;99.90;;;;;;5029198;28;20185;-70
2023/04/22 08:35:46;;;;;;;24.08;16.10;;;12.50;99.90;;;;;;5025067;28;20185;-70
2023/04/22 08:38:11;;;;;;;23.02;14.77;;;11.90;99.90;;;;;;5029120;28;20204;-70
2023/04/22 08:40:41;;;;;;;27.58;14.38;;;12.00;99.90;;;;;;5026267;28;20649;-70
2023/04/22 08:43:07;;;;;;;21.40;15.65;;;11.90;99.90;;;;;;5027815;28;20213;-70
2023/04/22 08:45:33;;;;;;;21.60;14.38;;;11.40;99.90;;;;;;5026825;28;20269;-70
2023/04/22 08:48:00;;;;;;;22.85;14.32;;;12.40;99.90;;;;;;5026531;28;20178;-70
2023/04/22 08:50:26;;;;;;;20.48;13.55;;;13.20;99.90;;;;;;5028133;28;20189;-70
2023/04/22 08:52:52;;;;;;;19.13;13.68;;;13.00;99.90;;;;;;5025856;28;20216;-71
2023/04/22 08:55:18;;;;;;;22.58;14.00;;;13.00;99.90;;;;;;5028149;28;20666;-70
2023/04/22 08:57:44;;;;;;;27.60;14.25;;;12.90;99.90;;;;;;5025376;28;20213;-70
2023/04/22 09:00:11;;;;;;;20.25;13.65;;;13.10;99.90;;;;;;5029166;28;20188;-70
2023/04/22 09:02:40;;;;;;;24.25;14.57;;;13.40;99.90;;;;;;5024210;28;20175;-71
2023/04/22 09:05:09;;;;;;;26.55;14.93;;;14.40;99.90;;;;;;5028518;28;20182;-71
2023/04/22 09:07:35;;;;;;;19.98;14.82;;;14.90;99.90;;;;;;5023789;28;20233;-70
2023/04/22 09:10:01;;;;;;;21.27;14.15;;;14.90;99.90;;;;;;5023654;28;20204;-70
2023/04/22 09:12:27;;;;;;;22.73;15.50;;;14.90;99.90;;;;;;5025498;28;20260;-70
2023/04/22 09:14:54;;;;;;;21.80;15.85;;;15.20;99.90;;;;;;5027868;28;20170;-71
2023/04/22 09:17:33;;;;;;;19.52;15.13;;;14.80;99.90;;;;;;5026502;28;20194;-71
2023/04/22 09:20:00;;;;;;;19.80;15.52;;;15.30;99.90;;;;;;5027956;28;20664;-71
2023/04/22 09:22:45;;;;;;;19.73;15.55;;;15.20;99.90;;;;;;5025518;28;20177;-71
2023/04/22 09:25:19;;;;;;;19.23;15.73;;;14.70;99.90;;;;;;5024565;28;20182;-71
2023/04/22 09:27:58;;;;;;;21.35;15.75;;;14.70;99.90;;;;;;5023837;28;20218;-70
2023/04/22 09:30:29;;;;;;;23.98;16.02;;;14.90;99.90;;;;;;5027735;28;20260;-70
2023/04/22 09:32:57;;;;;;;21.02;15.70;;;14.70;99.90;;;;;;5027765;28;20175;-70
2023/04/22 09:35:27;;;;;;;23.05;15.82;;;14.60;99.90;;;;;;5027576;28;20649;-71
2023/04/22 09:37:53;;;;;;;22.77;14.27;;;14.60;99.90;;;;;;5027201;28;20661;-70
2023/04/22 09:40:19;;;;;;;19.80;14.70;;;13.70;99.90;;;;;;5028073;28;20174;-71
2023/04/22 09:42:49;;;;;;;20.73;15.45;;;12.40;99.90;;;;;;5023258;28;20237;-70
2023/04/22 09:45:30;;;;;;;21.42;15.65;;;12.50;99.90;;;;;;5027983;28;20178;-69
2023/04/22 09:47:58;;;;;;;22.17;15.55;;;12.40;99.90;;;;;;5027218;28;20264;-69
2023/04/22 09:50:25;;;;;;;22.33;14.85;;;12.30;99.90;;;;;;5027216;28;20174;-70
2023/04/22 09:52:55;;;;;;;23.40;16.45;;;12.10;99.90;;;;;;5023773;28;20269;-70
2023/04/22 09:55:23;;;;;;;25.02;17.08;;;12.20;99.90;;;;;;5026393;28;20533;-70
2023/04/22 09:57:54;;;;;;;26.10;16.90;;;12.20;99.90;;;;;;5028433;28;20217;-70
2023/04/22 10:00:21;;;;;;;26.23;18.00;;;11.90;99.90;;;;;;5026100;28;20196;-70
2023/04/22 10:02:47;;;;;;;29.40;19.03;;;11.90;99.90;;;;;;5023165;28;20178;-70
2023/04/22 10:05:13;;;;;;;30.63;19.23;;;12.10;99.90;;;;;;5027962;28;20640;-70
2023/04/22 10:07:38;;;;;;;33.90;19.73;;;11.80;99.90;;;;;;5023069;28;20370;-70
2023/04/22 10:10:08;;;;;;;31.87;19.43;;;12.00;99.90;;;;;;5027061;28;20181;-70
2023/04/22 10:12:35;;;;;;;27.07;17.83;;;11.90;99.90;;;;;;5023503;28;20181;-70
2023/04/22 10:15:02;;;;;;;29.80;18.93;;;12.30;99.90;;;;;;5026225;28;20189;-70
2023/04/22 10:17:30;;;;;;;33.77;20.00;;;12.40;99.90;;;;;;5024695;28;20209;-71
2023/04/22 10:19:57;;;;;;;29.60;16.80;;;12.70;99.90;;;;;;5025470;28;20178;-70
2023/04/22 10:22:23;;;;;;;28.63;18.60;;;12.60;99.90;;;;;;5025591;28;20324;-70
2023/04/22 10:24:49;;;;;;;27.60;19.05;;;13.00;99.90;;;;;;5006493;28;20272;-70
2023/04/22 10:27:21;;;;;;;29.95;18.95;;;13.00;99.90;;;;;;5026035;28;20268;-70
2023/04/22 10:29:46;;;;;;;28.60;17.60;;;13.10;99.90;;;;;;5023775;28;20679;-70
2023/04/22 10:32:17;;;;;;;27.05;17.77;;;13.00;99.90;;;;;;5025626;28;20182;-70
2023/04/22 10:34:48;;;;;;;26.70;17.17;;;13.50;99.90;;;;;;5026769;28;20178;-70
2023/04/22 10:37:17;;;;;;;28.55;18.02;;;14.00;99.90;;;;;;5025885;28;20694;-70
2023/04/22 10:40:06;;;;;;;27.92;16.75;;;14.20;99.90;;;;;;5024893;28;20549;-70
2023/04/22 10:42:32;;;;;;;27.90;17.92;;;13.80;99.90;;;;;;5024557;28;20177;-70
2023/04/22 10:45:03;;;;;;;26.05;17.52;;;13.90;99.90;;;;;;5024297;28;20220;-70
2023/04/22 10:47:34;;;;;;;29.15;18.40;;;13.70;99.90;;;;;;5024815;28;20216;-72
2023/04/22 10:50:27;;;;;;;23.10;16.52;;;14.40;99.90;;;;;;5024446;28;20181;-69
2023/04/22 10:53:20;;;;;;;23.40;15.57;;;15.60;99.90;;;;;;5022053;28;20660;-70
2023/04/22 10:55:51;;;;;;;22.75;15.48;;;17.20;99.90;;;;;;5024376;28;20181;-70
2023/04/22 10:58:23;;;;;;;20.75;14.45;;;17.10;99.90;;;;;;5023755;28;20202;-71
2023/04/22 11:00:58;;;;;;;19.77;14.60;;;16.80;99.90;;;;;;5024861;28;20714;-70
2023/04/22 11:03:29;;;;;;;24.25;14.52;;;16.30;99.90;;;;;;5024382;28;20231;-70
2023/04/22 11:06:18;;;;;;;20.33;14.75;;;15.20;99.90;;;;;;5023999;28;20327;-69
2023/04/22 11:08:48;;;;;;;17.85;14.32;;;14.30;99.90;;;;;;5022015;28;20193;-69
2023/04/22 11:11:17;;;;;;;20.65;13.88;;;15.80;99.90;;;;;;5021576;28;20265;-69
2023/04/22 11:13:44;;;;;;;18.52;13.80;;;16.00;99.90;;;;;;5026228;28;20189;-69
2023/04/22 11:16:10;;;;;;;19.40;12.55;;;16.30;99.90;;;;;;5022302;28;20186;-69
2023/04/22 11:18:37;;;;;;;17.85;13.25;;;15.90;99.90;;;;;;5025564;28;20189;-69
2023/04/22 11:21:08;;;;;;;17.75;13.05;;;15.50;99.90;;;;;;5023520;28;20179;-71
2023/04/22 11:23:35;;;;;;;17.67;12.80;;;16.20;99.90;;;;;;5024692;28;20339;-69
2023/04/22 11:26:05;;;;;;;20.00;11.95;;;17.20;99.90;;;;;;5023543;28;20256;-70
2023/04/22 11:28:31;;;;;;;14.88;11.63;;;16.80;99.90;;;;;;5024295;28;20182;-70
2023/04/22 11:31:04;;;;;;;16.83;12.43;;;16.60;99.90;;;;;;5024572;28;20659;-69
2023/04/22 11:33:32;;;;;;;15.18;10.98;;;16.70;99.90;;;;;;5024074;28;20235;-71
2023/04/22 11:35:57;;;;;;;17.15;10.77;;;16.90;99.90;;;;;;5024393;28;20221;-70
2023/04/22 11:38:23;;;;;;;14.05;9.80;;;15.90;99.90;;;;;;5022930;28;20208;-70
2023/04/22 11:40:48;;;;;;;13.90;10.48;;;16.50;99.90;;;;;;5024906;28;20263;-70
2023/04/22 11:43:14;;;;;;;15.43;11.13;;;16.20;99.90;;;;;;5021266;28;20545;-70
2023/04/22 11:45:40;;;;;;;15.30;10.80;;;16.30;99.90;;;;;;5025845;28;20170;-70
2023/04/22 11:48:07;;;;;;;16.10;11.93;;;16.30;99.90;;;;;;5021067;28;20715;-69
2023/04/22 11:50:36;;;;;;;18.38;12.88;;;15.70;99.90;;;;;;5025788;28;20316;-70
2023/04/22 11:53:14;;;;;;;18.95;11.07;;;15.00;99.90;;;;;;5021485;28;20174;-71
2023/04/22 11:55:40;;;;;;;16.17;11.00;;;15.40;99.90;;;;;;5025756;28;20178;-71
2023/04/22 11:58:06;;;;;;;15.98;11.70;;;16.00;99.90;;;;;;5020968;28;20186;-70
2023/04/22 12:00:40;;;;;;;15.45;11.50;;;15.80;99.90;;;;;;5025726;28;20176;-70
2023/04/22 12:03:20;;;;;;;18.10;12.50;;;15.90;99.90;;;;;;5021183;28;20664;-71
2023/04/22 12:05:50;;;;;;;17.30;11.95;;;16.00;99.90;;;;;;5025688;28;20284;-69
2023/04/22 12:08:18;;;;;;;14.27;11.40;;;17.70;99.90;;;;;;5021558;28;20226;-70
2023/04/22 12:10:55;;;;;;;17.30;12.63;;;17.30;99.90;;;;;;5025592;28;20655;-69
2023/04/22 12:13:28;;;;;;;13.82;10.98;;;17.30;99.90;;;;;;5025097;28;20285;-70
2023/04/22 12:15:59;;;;;;;17.17;12.43;;;16.30;99.90;;;;;;5024596;28;20182;-69
2023/04/22 12:18:49;;;;;;;15.00;10.48;;;16.30;99.90;;;;;;5021738;28;20205;-70
2023/04/22 12:21:20;;;;;;;11.63;9.15;;;16.50;99.90;;;;;;5020855;28;20187;-70
2023/04/22 12:23:51;;;;;;;10.60;8.23;;;17.20;99.90;;;;;;5024513;28;20257;-70
2023/04/22 12:26:18;;;;;;;10.98;8.43;;;17.90;99.90;;;;;;5022947;28;20208;-70
2023/04/22 12:28:45;;;;;;;12.52;9.07;;;17.90;99.90;;;;;;5023746;28;20178;-70
2023/04/22 12:31:13;;;;;;;10.40;7.28;;;17.20;99.90;;;;;;5023782;28;20718;-70
2023/04/22 12:33:39;;;;;;;10.70;7.68;;;16.40;99.90;;;;;;5023176;28;20240;-69